sensor_id;sensor_type;location;lat;lon;timestamp;P1;durP1;ratioP1;P2;durP2;ratioP2
64483;SDS011;50862;51.642;7.964;2022-07-19T00:00:11;5.82;;;1.23;;
64483;SDS011;50862;51.642;7.964;2022-07-19T00:02:41;5.18;;;1.77;;
64483;SDS011;50862;51.642;7.964;2022-07-19T00:05:10;3.38;;;1.13;;
64483;SDS011;50862;51.642;7.964;2022-07-19T00:07:39;4.60;;;1.60;;
64483;SDS011;50862;51.642;7.964;2022-07-19T00:10:09;3.15;;;1.45;;
64483;SDS011;50862;51.642;7.964;2022-07-19T00:12:38;2.65;;;1.60;;
64483;SDS011;50862;51.642;7.964;2022-07-19T00:15:09;3.22;;;1.60;;
64483;SDS011;50862;51.642;7.964;2022-07-19T00:17:39;3.15;;;1.35;;
64483;SDS011;50862;51.642;7.964;2022-07-19T00:20:08;4.60;;;1.25;;
64483;SDS011;50862;51.642;7.964;2022-07-19T00:22:38;5.80;;;1.70;;
64483;SDS011;50862;51.642;7.964;2022-07-19T00:25:07;7.75;;;1.70;;
64483;SDS011;50862;51.642;7.964;2022-07-19T00:27:35;3.00;;;1.50;;
64483;SDS011;50862;51.642;7.964;2022-07-19T00:30:04;3.22;;;1.40;;
64483;SDS011;50862;51.642;7.964;2022-07-19T00:32:35;9.50;;;1.50;;
64483;SDS011;50862;51.642;7.964;2022-07-19T00:35:04;4.80;;;1.60;;
64483;SDS011;50862;51.642;7.964;2022-07-19T00:37:32;6.30;;;3.08;;
64483;SDS011;50862;51.642;7.964;2022-07-19T00:40:00;3.63;;;1.60;;
64483;SDS011;50862;51.642;7.964;2022-07-19T00:42:29;12.15;;;2.63;;
64483;SDS011;50862;51.642;7.964;2022-07-19T00:44:58;3.97;;;2.03;;
64483;SDS011;50862;51.642;7.964;2022-07-19T00:47:26;6.57;;;1.75;;
64483;SDS011;50862;51.642;7.964;2022-07-19T00:49:56;7.30;;;1.58;;
64483;SDS011;50862;51.642;7.964;2022-07-19T00:52:24;5.35;;;2.78;;
64483;SDS011;50862;51.642;7.964;2022-07-19T00:54:55;5.30;;;1.35;;
64483;SDS011;50862;51.642;7.964;2022-07-19T00:57:24;2.72;;;1.20;;
64483;SDS011;50862;51.642;7.964;2022-07-19T00:59:53;2.58;;;1.48;;
64483;SDS011;50862;51.642;7.964;2022-07-19T01:02:21;4.63;;;1.55;;
64483;SDS011;50862;51.642;7.964;2022-07-19T01:04:50;2.92;;;1.75;;
64483;SDS011;50862;51.642;7.964;2022-07-19T01:07:24;2.92;;;1.40;;
64483;SDS011;50862;51.642;7.964;2022-07-19T01:09:52;3.33;;;1.52;;
64483;SDS011;50862;51.642;7.964;2022-07-19T01:12:20;4.88;;;1.90;;
64483;SDS011;50862;51.642;7.964;2022-07-19T01:14:49;3.83;;;1.60;;
64483;SDS011;50862;51.642;7.964;2022-07-19T01:17:22;3.83;;;2.00;;
64483;SDS011;50862;51.642;7.964;2022-07-19T01:19:50;5.22;;;2.00;;
64483;SDS011;50862;51.642;7.964;2022-07-19T01:22:21;6.22;;;1.80;;
64483;SDS011;50862;51.642;7.964;2022-07-19T01:24:49;4.05;;;1.90;;
64483;SDS011;50862;51.642;7.964;2022-07-19T01:27:17;2.83;;;2.03;;
64483;SDS011;50862;51.642;7.964;2022-07-19T01:29:45;8.02;;;2.38;;
64483;SDS011;50862;51.642;7.964;2022-07-19T01:32:14;6.72;;;1.92;;
64483;SDS011;50862;51.642;7.964;2022-07-19T01:34:42;8.50;;;1.92;;
64483;SDS011;50862;51.642;7.964;2022-07-19T01:37:10;2.45;;;1.50;;
64483;SDS011;50862;51.642;7.964;2022-07-19T01:39:40;22.80;;;3.45;;
64483;SDS011;50862;51.642;7.964;2022-07-19T01:42:08;6.57;;;2.15;;
64483;SDS011;50862;51.642;7.964;2022-07-19T01:44:36;3.83;;;1.50;;
64483;SDS011;50862;51.642;7.964;2022-07-19T01:47:05;6.90;;;1.80;;
64483;SDS011;50862;51.642;7.964;2022-07-19T01:49:33;3.15;;;1.50;;
64483;SDS011;50862;51.642;7.964;2022-07-19T01:52:01;5.47;;;1.67;;
64483;SDS011;50862;51.642;7.964;2022-07-19T01:54:29;2.28;;;1.52;;
64483;SDS011;50862;51.642;7.964;2022-07-19T01:56:59;12.70;;;2.63;;
64483;SDS011;50862;51.642;7.964;2022-07-19T01:59:27;12.55;;;2.13;;
64483;SDS011;50862;51.642;7.964;2022-07-19T02:01:56;3.08;;;2.17;;
64483;SDS011;50862;51.642;7.964;2022-07-19T02:04:24;2.97;;;1.92;;
64483;SDS011;50862;51.642;7.964;2022-07-19T02:06:53;3.60;;;1.73;;
64483;SDS011;50862;51.642;7.964;2022-07-19T02:09:21;3.90;;;1.95;;
64483;SDS011;50862;51.642;7.964;2022-07-19T02:11:50;5.03;;;1.88;;
64483;SDS011;50862;51.642;7.964;2022-07-19T02:14:20;2.33;;;1.55;;
64483;SDS011;50862;51.642;7.964;2022-07-19T02:16:48;9.07;;;2.17;;
64483;SDS011;50862;51.642;7.964;2022-07-19T02:19:17;4.88;;;1.80;;
64483;SDS011;50862;51.642;7.964;2022-07-19T02:21:46;3.95;;;1.75;;
64483;SDS011;50862;51.642;7.964;2022-07-19T02:24:15;3.22;;;1.55;;
64483;SDS011;50862;51.642;7.964;2022-07-19T02:26:43;6.88;;;1.77;;
64483;SDS011;50862;51.642;7.964;2022-07-19T02:29:11;3.65;;;2.63;;
64483;SDS011;50862;51.642;7.964;2022-07-19T02:31:41;3.22;;;1.60;;
64483;SDS011;50862;51.642;7.964;2022-07-19T02:34:10;5.22;;;2.38;;
64483;SDS011;50862;51.642;7.964;2022-07-19T02:36:39;6.60;;;2.00;;
64483;SDS011;50862;51.642;7.964;2022-07-19T02:39:07;4.22;;;1.73;;
64483;SDS011;50862;51.642;7.964;2022-07-19T02:41:36;7.32;;;1.75;;
64483;SDS011;50862;51.642;7.964;2022-07-19T02:44:04;3.97;;;1.95;;
64483;SDS011;50862;51.642;7.964;2022-07-19T02:46:32;5.00;;;1.67;;
64483;SDS011;50862;51.642;7.964;2022-07-19T02:49:02;6.68;;;1.95;;
64483;SDS011;50862;51.642;7.964;2022-07-19T02:51:30;4.03;;;1.75;;
64483;SDS011;50862;51.642;7.964;2022-07-19T02:53:59;2.60;;;1.80;;
64483;SDS011;50862;51.642;7.964;2022-07-19T02:56:27;6.03;;;2.30;;
64483;SDS011;50862;51.642;7.964;2022-07-19T02:58:55;6.95;;;2.28;;
64483;SDS011;50862;51.642;7.964;2022-07-19T03:01:23;2.28;;;1.70;;
64483;SDS011;50862;51.642;7.964;2022-07-19T03:03:52;4.85;;;1.63;;
64483;SDS011;50862;51.642;7.964;2022-07-19T03:06:22;6.57;;;2.28;;
64483;SDS011;50862;51.642;7.964;2022-07-19T03:08:50;9.43;;;1.98;;
64483;SDS011;50862;51.642;7.964;2022-07-19T03:11:18;4.15;;;1.83;;
64483;SDS011;50862;51.642;7.964;2022-07-19T03:13:47;7.65;;;2.20;;
64483;SDS011;50862;51.642;7.964;2022-07-19T03:16:15;6.07;;;2.92;;
64483;SDS011;50862;51.642;7.964;2022-07-19T03:18:44;8.30;;;2.67;;
64483;SDS011;50862;51.642;7.964;2022-07-19T03:21:12;8.55;;;2.30;;
64483;SDS011;50862;51.642;7.964;2022-07-19T03:23:42;6.50;;;2.25;;
64483;SDS011;50862;51.642;7.964;2022-07-19T03:26:10;10.30;;;2.92;;
64483;SDS011;50862;51.642;7.964;2022-07-19T03:28:38;7.72;;;2.30;;
64483;SDS011;50862;51.642;7.964;2022-07-19T03:31:07;5.72;;;2.17;;
64483;SDS011;50862;51.642;7.964;2022-07-19T03:33:36;7.70;;;2.85;;
64483;SDS011;50862;51.642;7.964;2022-07-19T03:36:04;10.23;;;2.13;;
64483;SDS011;50862;51.642;7.964;2022-07-19T03:38:33;7.80;;;2.05;;
64483;SDS011;50862;51.642;7.964;2022-07-19T03:41:02;3.00;;;2.08;;
64483;SDS011;50862;51.642;7.964;2022-07-19T03:43:31;5.35;;;2.00;;
64483;SDS011;50862;51.642;7.964;2022-07-19T03:45:59;7.03;;;2.53;;
64483;SDS011;50862;51.642;7.964;2022-07-19T03:48:27;2.53;;;1.67;;
64483;SDS011;50862;51.642;7.964;2022-07-19T03:50:56;2.20;;;1.80;;
64483;SDS011;50862;51.642;7.964;2022-07-19T03:53:24;4.68;;;2.05;;
64483;SDS011;50862;51.642;7.964;2022-07-19T03:55:52;4.07;;;2.20;;
64483;SDS011;50862;51.642;7.964;2022-07-19T03:58:22;3.95;;;1.60;;
64483;SDS011;50862;51.642;7.964;2022-07-19T04:00:50;7.30;;;2.65;;
64483;SDS011;50862;51.642;7.964;2022-07-19T04:03:19;4.78;;;2.60;;
64483;SDS011;50862;51.642;7.964;2022-07-19T04:05:47;7.07;;;2.60;;
64483;SDS011;50862;51.642;7.964;2022-07-19T04:08:16;9.25;;;2.30;;
64483;SDS011;50862;51.642;7.964;2022-07-19T04:10:44;8.75;;;2.72;;
64483;SDS011;50862;51.642;7.964;2022-07-19T04:13:12;5.45;;;2.25;;
64483;SDS011;50862;51.642;7.964;2022-07-19T04:15:42;7.35;;;2.72;;
64483;SDS011;50862;51.642;7.964;2022-07-19T04:18:12;5.22;;;1.75;;
64483;SDS011;50862;51.642;7.964;2022-07-19T04:20:40;4.80;;;1.90;;
64483;SDS011;50862;51.642;7.964;2022-07-19T04:23:09;8.57;;;1.85;;
64483;SDS011;50862;51.642;7.964;2022-07-19T04:25:37;7.57;;;2.55;;
64483;SDS011;50862;51.642;7.964;2022-07-19T04:28:05;7.43;;;2.58;;
64483;SDS011;50862;51.642;7.964;2022-07-19T04:30:34;4.22;;;1.80;;
64483;SDS011;50862;51.642;7.964;2022-07-19T04:33:04;7.72;;;2.47;;
64483;SDS011;50862;51.642;7.964;2022-07-19T04:35:32;6.95;;;2.38;;
64483;SDS011;50862;51.642;7.964;2022-07-19T04:38:00;6.13;;;2.10;;
64483;SDS011;50862;51.642;7.964;2022-07-19T04:40:28;6.07;;;2.40;;
64483;SDS011;50862;51.642;7.964;2022-07-19T04:42:57;4.70;;;2.25;;
64483;SDS011;50862;51.642;7.964;2022-07-19T04:45:25;3.20;;;2.13;;
64483;SDS011;50862;51.642;7.964;2022-07-19T04:47:54;12.60;;;2.38;;
64483;SDS011;50862;51.642;7.964;2022-07-19T04:50:23;9.55;;;2.40;;
64483;SDS011;50862;51.642;7.964;2022-07-19T04:52:51;4.90;;;2.50;;
64483;SDS011;50862;51.642;7.964;2022-07-19T04:55:20;4.43;;;2.58;;
64483;SDS011;50862;51.642;7.964;2022-07-19T04:57:48;4.80;;;2.78;;
64483;SDS011;50862;51.642;7.964;2022-07-19T05:00:16;4.68;;;2.33;;
64483;SDS011;50862;51.642;7.964;2022-07-19T05:02:45;7.35;;;2.40;;
64483;SDS011;50862;51.642;7.964;2022-07-19T05:05:14;7.40;;;1.98;;
64483;SDS011;50862;51.642;7.964;2022-07-19T05:07:43;8.55;;;2.25;;
64483;SDS011;50862;51.642;7.964;2022-07-19T05:10:11;6.78;;;2.40;;
64483;SDS011;50862;51.642;7.964;2022-07-19T05:12:39;7.78;;;2.60;;
64483;SDS011;50862;51.642;7.964;2022-07-19T05:15:08;4.45;;;2.50;;
64483;SDS011;50862;51.642;7.964;2022-07-19T05:17:41;4.55;;;2.60;;
64483;SDS011;50862;51.642;7.964;2022-07-19T05:20:10;5.40;;;2.40;;
64483;SDS011;50862;51.642;7.964;2022-07-19T05:22:41;9.40;;;2.40;;
64483;SDS011;50862;51.642;7.964;2022-07-19T05:25:14;11.55;;;3.72;;
64483;SDS011;50862;51.642;7.964;2022-07-19T05:27:42;5.53;;;2.67;;
64483;SDS011;50862;51.642;7.964;2022-07-19T05:30:11;6.18;;;2.55;;
64483;SDS011;50862;51.642;7.964;2022-07-19T05:32:39;3.55;;;2.28;;
64483;SDS011;50862;51.642;7.964;2022-07-19T05:35:08;6.63;;;2.10;;
64483;SDS011;50862;51.642;7.964;2022-07-19T05:37:36;5.80;;;2.70;;
64483;SDS011;50862;51.642;7.964;2022-07-19T05:40:06;4.32;;;3.03;;
64483;SDS011;50862;51.642;7.964;2022-07-19T05:42:35;4.18;;;2.17;;
64483;SDS011;50862;51.642;7.964;2022-07-19T05:45:04;3.20;;;1.95;;
64483;SDS011;50862;51.642;7.964;2022-07-19T05:47:32;8.68;;;2.67;;
64483;SDS011;50862;51.642;7.964;2022-07-19T05:50:01;8.10;;;2.40;;
64483;SDS011;50862;51.642;7.964;2022-07-19T05:52:29;6.30;;;2.55;;
64483;SDS011;50862;51.642;7.964;2022-07-19T05:55:03;10.68;;;2.35;;
64483;SDS011;50862;51.642;7.964;2022-07-19T05:57:34;6.53;;;2.22;;
64483;SDS011;50862;51.642;7.964;2022-07-19T06:00:02;5.75;;;1.98;;
64483;SDS011;50862;51.642;7.964;2022-07-19T06:02:32;4.13;;;2.03;;
64483;SDS011;50862;51.642;7.964;2022-07-19T06:05:00;7.18;;;2.13;;
64483;SDS011;50862;51.642;7.964;2022-07-19T06:07:29;5.22;;;2.10;;
64483;SDS011;50862;51.642;7.964;2022-07-19T06:09:57;4.70;;;2.17;;
64483;SDS011;50862;51.642;7.964;2022-07-19T06:12:26;7.68;;;2.08;;
64483;SDS011;50862;51.642;7.964;2022-07-19T06:14:54;4.57;;;1.65;;
64483;SDS011;50862;51.642;7.964;2022-07-19T06:17:23;4.18;;;2.00;;
64483;SDS011;50862;51.642;7.964;2022-07-19T06:19:51;3.65;;;1.83;;
64483;SDS011;50862;51.642;7.964;2022-07-19T06:22:19;3.85;;;1.90;;
64483;SDS011;50862;51.642;7.964;2022-07-19T06:24:47;5.03;;;2.45;;
64483;SDS011;50862;51.642;7.964;2022-07-19T06:27:15;8.30;;;1.90;;
64483;SDS011;50862;51.642;7.964;2022-07-19T06:29:45;3.20;;;2.15;;
64483;SDS011;50862;51.642;7.964;2022-07-19T06:32:13;3.38;;;1.70;;
64483;SDS011;50862;51.642;7.964;2022-07-19T06:34:42;3.80;;;2.00;;
64483;SDS011;50862;51.642;7.964;2022-07-19T06:37:10;10.23;;;3.35;;
64483;SDS011;50862;51.642;7.964;2022-07-19T06:39:38;4.10;;;1.88;;
64483;SDS011;50862;51.642;7.964;2022-07-19T06:42:06;8.15;;;1.90;;
64483;SDS011;50862;51.642;7.964;2022-07-19T06:44:34;3.17;;;2.03;;
64483;SDS011;50862;51.642;7.964;2022-07-19T06:47:04;4.38;;;2.05;;
64483;SDS011;50862;51.642;7.964;2022-07-19T06:49:32;4.45;;;1.92;;
64483;SDS011;50862;51.642;7.964;2022-07-19T06:52:00;5.30;;;2.47;;
64483;SDS011;50862;51.642;7.964;2022-07-19T06:54:29;5.15;;;1.60;;
64483;SDS011;50862;51.642;7.964;2022-07-19T06:56:57;4.13;;;1.63;;
64483;SDS011;50862;51.642;7.964;2022-07-19T06:59:25;4.00;;;1.83;;
64483;SDS011;50862;51.642;7.964;2022-07-19T07:01:53;5.70;;;1.90;;
64483;SDS011;50862;51.642;7.964;2022-07-19T07:04:23;3.92;;;1.63;;
64483;SDS011;50862;51.642;7.964;2022-07-19T07:07:03;4.53;;;1.73;;
64483;SDS011;50862;51.642;7.964;2022-07-19T07:09:31;1.27;;;1.10;;
64483;SDS011;50862;51.642;7.964;2022-07-19T07:11:59;3.80;;;1.55;;
64483;SDS011;50862;51.642;7.964;2022-07-19T07:14:28;3.00;;;1.52;;
64483;SDS011;50862;51.642;7.964;2022-07-19T07:16:56;3.17;;;1.42;;
64483;SDS011;50862;51.642;7.964;2022-07-19T07:19:25;3.35;;;1.48;;
64483;SDS011;50862;51.642;7.964;2022-07-19T07:21:54;2.33;;;1.20;;
64483;SDS011;50862;51.642;7.964;2022-07-19T07:24:23;4.43;;;1.50;;
64483;SDS011;50862;51.642;7.964;2022-07-19T07:26:51;6.38;;;1.95;;
64483;SDS011;50862;51.642;7.964;2022-07-19T07:29:20;2.25;;;1.27;;
64483;SDS011;50862;51.642;7.964;2022-07-19T07:31:48;2.15;;;1.20;;
64483;SDS011;50862;51.642;7.964;2022-07-19T07:34:17;4.40;;;1.60;;
64483;SDS011;50862;51.642;7.964;2022-07-19T07:36:46;1.42;;;1.20;;
64483;SDS011;50862;51.642;7.964;2022-07-19T07:39:15;3.72;;;1.63;;
64483;SDS011;50862;51.642;7.964;2022-07-19T07:41:43;3.38;;;1.52;;
64483;SDS011;50862;51.642;7.964;2022-07-19T07:44:25;3.10;;;1.30;;
64483;SDS011;50862;51.642;7.964;2022-07-19T07:46:54;1.70;;;1.30;;
64483;SDS011;50862;51.642;7.964;2022-07-19T07:49:22;3.55;;;1.58;;
64483;SDS011;50862;51.642;7.964;2022-07-19T07:51:51;4.03;;;1.60;;
64483;SDS011;50862;51.642;7.964;2022-07-19T07:54:20;2.42;;;1.23;;
64483;SDS011;50862;51.642;7.964;2022-07-19T07:56:49;3.78;;;1.20;;
64483;SDS011;50862;51.642;7.964;2022-07-19T07:59:17;3.10;;;1.40;;
64483;SDS011;50862;51.642;7.964;2022-07-19T08:01:45;6.40;;;1.40;;
64483;SDS011;50862;51.642;7.964;2022-07-19T08:04:23;3.25;;;1.48;;
64483;SDS011;50862;51.642;7.964;2022-07-19T08:06:52;2.75;;;1.25;;
64483;SDS011;50862;51.642;7.964;2022-07-19T08:09:21;2.65;;;1.35;;
64483;SDS011;50862;51.642;7.964;2022-07-19T08:11:49;4.05;;;1.42;;
64483;SDS011;50862;51.642;7.964;2022-07-19T08:14:17;3.35;;;1.30;;
64483;SDS011;50862;51.642;7.964;2022-07-19T08:16:45;1.48;;;1.10;;
64483;SDS011;50862;51.642;7.964;2022-07-19T08:19:13;4.80;;;1.48;;
64483;SDS011;50862;51.642;7.964;2022-07-19T08:21:42;4.28;;;1.40;;
64483;SDS011;50862;51.642;7.964;2022-07-19T08:24:11;3.42;;;1.23;;
64483;SDS011;50862;51.642;7.964;2022-07-19T08:26:39;2.17;;;1.52;;
64483;SDS011;50862;51.642;7.964;2022-07-19T08:29:07;2.58;;;1.10;;
64483;SDS011;50862;51.642;7.964;2022-07-19T08:31:36;1.65;;;1.40;;
64483;SDS011;50862;51.642;7.964;2022-07-19T08:34:05;5.30;;;1.40;;
64483;SDS011;50862;51.642;7.964;2022-07-19T08:36:33;3.33;;;1.30;;
64483;SDS011;50862;51.642;7.964;2022-07-19T08:39:02;2.08;;;1.13;;
64483;SDS011;50862;51.642;7.964;2022-07-19T08:41:32;1.35;;;1.25;;
64483;SDS011;50862;51.642;7.964;2022-07-19T08:44:03;1.65;;;1.15;;
64483;SDS011;50862;51.642;7.964;2022-07-19T08:46:31;2.95;;;1.27;;
64483;SDS011;50862;51.642;7.964;2022-07-19T08:49:00;4.18;;;2.05;;
64483;SDS011;50862;51.642;7.964;2022-07-19T08:51:29;3.00;;;1.38;;
64483;SDS011;50862;51.642;7.964;2022-07-19T08:53:57;2.50;;;1.50;;
64483;SDS011;50862;51.642;7.964;2022-07-19T08:56:25;2.90;;;1.35;;
64483;SDS011;50862;51.642;7.964;2022-07-19T08:59:13;7.25;;;1.30;;
64483;SDS011;50862;51.642;7.964;2022-07-19T09:01:41;2.83;;;1.17;;
64483;SDS011;50862;51.642;7.964;2022-07-19T09:04:11;2.97;;;1.48;;
64483;SDS011;50862;51.642;7.964;2022-07-19T09:06:42;1.33;;;1.23;;
64483;SDS011;50862;51.642;7.964;2022-07-19T09:09:12;2.38;;;1.20;;
64483;SDS011;50862;51.642;7.964;2022-07-19T09:11:43;5.10;;;1.45;;
64483;SDS011;50862;51.642;7.964;2022-07-19T09:14:23;7.68;;;1.48;;
64483;SDS011;50862;51.642;7.964;2022-07-19T09:16:59;3.03;;;1.20;;
64483;SDS011;50862;51.642;7.964;2022-07-19T09:19:31;1.25;;;1.20;;
64483;SDS011;50862;51.642;7.964;2022-07-19T09:22:01;5.22;;;1.40;;
64483;SDS011;50862;51.642;7.964;2022-07-19T09:24:31;3.35;;;1.33;;
64483;SDS011;50862;51.642;7.964;2022-07-19T09:27:03;1.60;;;1.30;;
64483;SDS011;50862;51.642;7.964;2022-07-19T09:29:35;3.22;;;1.20;;
64483;SDS011;50862;51.642;7.964;2022-07-19T09:32:05;3.45;;;1.40;;
64483;SDS011;50862;51.642;7.964;2022-07-19T09:34:36;2.78;;;1.48;;
64483;SDS011;50862;51.642;7.964;2022-07-19T09:37:09;3.60;;;1.33;;
64483;SDS011;50862;51.642;7.964;2022-07-19T09:39:40;5.25;;;1.13;;
64483;SDS011;50862;51.642;7.964;2022-07-19T09:42:12;3.40;;;1.65;;
64483;SDS011;50862;51.642;7.964;2022-07-19T09:44:45;4.07;;;1.50;;
64483;SDS011;50862;51.642;7.964;2022-07-19T09:47:14;2.78;;;1.88;;
64483;SDS011;50862;51.642;7.964;2022-07-19T09:49:58;1.35;;;1.25;;
64483;SDS011;50862;51.642;7.964;2022-07-19T09:52:27;5.63;;;1.30;;
64483;SDS011;50862;51.642;7.964;2022-07-19T09:55:05;5.63;;;1.38;;
64483;SDS011;50862;51.642;7.964;2022-07-19T09:57:36;1.70;;;1.30;;
64483;SDS011;50862;51.642;7.964;2022-07-19T10:00:08;5.15;;;1.40;;
64483;SDS011;50862;51.642;7.964;2022-07-19T10:02:39;2.65;;;1.33;;
64483;SDS011;50862;51.642;7.964;2022-07-19T10:05:09;2.47;;;1.58;;
64483;SDS011;50862;51.642;7.964;2022-07-19T10:07:38;2.47;;;1.25;;
64483;SDS011;50862;51.642;7.964;2022-07-19T10:10:08;2.20;;;1.40;;
64483;SDS011;50862;51.642;7.964;2022-07-19T10:12:38;1.08;;;1.08;;
64483;SDS011;50862;51.642;7.964;2022-07-19T10:15:10;5.25;;;1.33;;
64483;SDS011;50862;51.642;7.964;2022-07-19T10:17:41;1.20;;;1.15;;
64483;SDS011;50862;51.642;7.964;2022-07-19T10:20:22;5.63;;;0.95;;
64483;SDS011;50862;51.642;7.964;2022-07-19T10:22:53;3.95;;;1.20;;
64483;SDS011;50862;51.642;7.964;2022-07-19T10:25:26;7.75;;;1.40;;
64483;SDS011;50862;51.642;7.964;2022-07-19T10:28:05;1.92;;;1.40;;
64483;SDS011;50862;51.642;7.964;2022-07-19T10:31:25;7.80;;;1.40;;
64483;SDS011;50862;51.642;7.964;2022-07-19T10:33:58;4.28;;;1.30;;
64483;SDS011;50862;51.642;7.964;2022-07-19T10:36:31;3.90;;;1.25;;
64483;SDS011;50862;51.642;7.964;2022-07-19T10:39:24;6.60;;;1.38;;
64483;SDS011;50862;51.642;7.964;2022-07-19T10:42:07;2.55;;;1.08;;
64483;SDS011;50862;51.642;7.964;2022-07-19T10:50:50;2.38;;;1.05;;
64483;SDS011;50862;51.642;7.964;2022-07-19T10:56:42;3.25;;;1.50;;
64483;SDS011;50862;51.642;7.964;2022-07-19T10:59:33;3.35;;;1.20;;
64483;SDS011;50862;51.642;7.964;2022-07-19T11:02:04;2.65;;;1.40;;
64483;SDS011;50862;51.642;7.964;2022-07-19T11:04:54;3.05;;;1.17;;
64483;SDS011;50862;51.642;7.964;2022-07-19T11:07:23;2.60;;;1.20;;
64483;SDS011;50862;51.642;7.964;2022-07-19T11:09:53;2.03;;;1.13;;
64483;SDS011;50862;51.642;7.964;2022-07-19T11:12:30;1.27;;;1.10;;
64483;SDS011;50862;51.642;7.964;2022-07-19T11:15:00;2.33;;;1.15;;
64483;SDS011;50862;51.642;7.964;2022-07-19T11:17:51;4.10;;;1.70;;
64483;SDS011;50862;51.642;7.964;2022-07-19T11:20:23;8.27;;;1.50;;
64483;SDS011;50862;51.642;7.964;2022-07-19T11:22:53;5.63;;;1.23;;
64483;SDS011;50862;51.642;7.964;2022-07-19T11:25:24;3.90;;;1.27;;
64483;SDS011;50862;51.642;7.964;2022-07-19T11:27:53;3.35;;;1.85;;
64483;SDS011;50862;51.642;7.964;2022-07-19T11:30:22;4.00;;;1.63;;
64483;SDS011;50862;51.642;7.964;2022-07-19T11:32:51;2.00;;;1.20;;
64483;SDS011;50862;51.642;7.964;2022-07-19T11:35:20;3.20;;;1.40;;
64483;SDS011;50862;51.642;7.964;2022-07-19T11:37:51;3.65;;;1.80;;
64483;SDS011;50862;51.642;7.964;2022-07-19T11:40:21;1.42;;;1.33;;
64483;SDS011;50862;51.642;7.964;2022-07-19T11:42:50;5.47;;;1.48;;
64483;SDS011;50862;51.642;7.964;2022-07-19T11:45:42;2.63;;;1.15;;
64483;SDS011;50862;51.642;7.964;2022-07-19T11:48:22;5.05;;;1.48;;
64483;SDS011;50862;51.642;7.964;2022-07-19T11:51:04;2.63;;;1.52;;
64483;SDS011;50862;51.642;7.964;2022-07-19T11:53:34;2.40;;;1.40;;
64483;SDS011;50862;51.642;7.964;2022-07-19T11:56:04;4.40;;;1.55;;
64483;SDS011;50862;51.642;7.964;2022-07-19T11:58:42;3.47;;;1.42;;
64483;SDS011;50862;51.642;7.964;2022-07-19T12:01:12;1.60;;;1.10;;
64483;SDS011;50862;51.642;7.964;2022-07-19T12:03:40;1.75;;;1.30;;
64483;SDS011;50862;51.642;7.964;2022-07-19T12:06:22;2.33;;;1.13;;
64483;SDS011;50862;51.642;7.964;2022-07-19T12:09:03;2.67;;;1.50;;
64483;SDS011;50862;51.642;7.964;2022-07-19T12:11:37;3.92;;;1.40;;
64483;SDS011;50862;51.642;7.964;2022-07-19T12:14:17;3.15;;;1.83;;
64483;SDS011;50862;51.642;7.964;2022-07-19T12:16:47;3.53;;;1.30;;
64483;SDS011;50862;51.642;7.964;2022-07-19T12:19:15;1.38;;;1.23;;
64483;SDS011;50862;51.642;7.964;2022-07-19T12:21:47;2.83;;;1.30;;
64483;SDS011;50862;51.642;7.964;2022-07-19T12:24:19;2.67;;;1.17;;
64483;SDS011;50862;51.642;7.964;2022-07-19T12:29:44;1.80;;;1.38;;
64483;SDS011;50862;51.642;7.964;2022-07-19T12:32:14;2.70;;;1.17;;
64483;SDS011;50862;51.642;7.964;2022-07-19T12:34:55;2.08;;;1.38;;
64483;SDS011;50862;51.642;7.964;2022-07-19T12:37:27;4.03;;;1.70;;
64483;SDS011;50862;51.642;7.964;2022-07-19T12:40:06;2.90;;;1.63;;
64483;SDS011;50862;51.642;7.964;2022-07-19T12:42:40;3.83;;;1.27;;
64483;SDS011;50862;51.642;7.964;2022-07-19T12:45:11;5.32;;;1.30;;
64483;SDS011;50862;51.642;7.964;2022-07-19T12:47:41;2.85;;;1.42;;
64483;SDS011;50862;51.642;7.964;2022-07-19T12:50:17;3.75;;;1.17;;
64483;SDS011;50862;51.642;7.964;2022-07-19T12:52:48;5.38;;;1.30;;
64483;SDS011;50862;51.642;7.964;2022-07-19T12:55:17;1.90;;;1.10;;
64483;SDS011;50862;51.642;7.964;2022-07-19T12:57:46;5.90;;;1.42;;
64483;SDS011;50862;51.642;7.964;2022-07-19T13:00:15;1.60;;;1.50;;
64483;SDS011;50862;51.642;7.964;2022-07-19T13:02:44;1.60;;;1.30;;
64483;SDS011;50862;51.642;7.964;2022-07-19T13:05:13;2.40;;;1.17;;
64483;SDS011;50862;51.642;7.964;2022-07-19T13:07:41;5.55;;;1.10;;
64483;SDS011;50862;51.642;7.964;2022-07-19T13:10:11;1.13;;;1.13;;
64483;SDS011;50862;51.642;7.964;2022-07-19T13:12:40;2.58;;;1.55;;
64483;SDS011;50862;51.642;7.964;2022-07-19T13:15:09;4.07;;;1.20;;
64483;SDS011;50862;51.642;7.964;2022-07-19T13:17:39;4.60;;;1.30;;
64483;SDS011;50862;51.642;7.964;2022-07-19T13:20:08;5.80;;;1.48;;
64483;SDS011;50862;51.642;7.964;2022-07-19T13:22:37;3.45;;;1.52;;
64483;SDS011;50862;51.642;7.964;2022-07-19T13:25:07;5.40;;;1.30;;
64483;SDS011;50862;51.642;7.964;2022-07-19T13:27:58;1.95;;;1.27;;
64483;SDS011;50862;51.642;7.964;2022-07-19T13:30:26;1.48;;;1.38;;
64483;SDS011;50862;51.642;7.964;2022-07-19T13:32:54;4.60;;;1.40;;
64483;SDS011;50862;51.642;7.964;2022-07-19T13:35:23;1.73;;;1.40;;
64483;SDS011;50862;51.642;7.964;2022-07-19T13:37:51;2.75;;;1.30;;
64483;SDS011;50862;51.642;7.964;2022-07-19T13:40:19;4.18;;;1.40;;
64483;SDS011;50862;51.642;7.964;2022-07-19T13:42:48;2.78;;;1.58;;
64483;SDS011;50862;51.642;7.964;2022-07-19T13:45:17;2.95;;;1.52;;
64483;SDS011;50862;51.642;7.964;2022-07-19T13:47:46;1.98;;;1.63;;
64483;SDS011;50862;51.642;7.964;2022-07-19T13:50:14;5.65;;;1.63;;
64483;SDS011;50862;51.642;7.964;2022-07-19T13:52:42;3.38;;;1.35;;
64483;SDS011;50862;51.642;7.964;2022-07-19T13:55:10;3.35;;;1.60;;
64483;SDS011;50862;51.642;7.964;2022-07-19T13:57:38;1.75;;;1.38;;
64483;SDS011;50862;51.642;7.964;2022-07-19T14:00:07;2.67;;;1.33;;
64483;SDS011;50862;51.642;7.964;2022-07-19T14:02:38;2.63;;;1.30;;
64483;SDS011;50862;51.642;7.964;2022-07-19T14:05:07;2.55;;;1.42;;
64483;SDS011;50862;51.642;7.964;2022-07-19T14:07:35;2.17;;;1.48;;
64483;SDS011;50862;51.642;7.964;2022-07-19T14:10:04;5.30;;;1.50;;
64483;SDS011;50862;51.642;7.964;2022-07-19T14:12:33;4.43;;;1.50;;
64483;SDS011;50862;51.642;7.964;2022-07-19T14:15:01;5.70;;;2.13;;
64483;SDS011;50862;51.642;7.964;2022-07-19T14:17:29;1.77;;;1.67;;
64483;SDS011;50862;51.642;7.964;2022-07-19T14:19:59;4.78;;;1.85;;
64483;SDS011;50862;51.642;7.964;2022-07-19T14:22:28;2.20;;;1.35;;
64483;SDS011;50862;51.642;7.964;2022-07-19T14:24:58;2.65;;;1.55;;
64483;SDS011;50862;51.642;7.964;2022-07-19T14:27:27;4.70;;;1.35;;
64483;SDS011;50862;51.642;7.964;2022-07-19T14:29:55;3.38;;;1.40;;
64483;SDS011;50862;51.642;7.964;2022-07-19T14:32:23;1.48;;;1.25;;
64483;SDS011;50862;51.642;7.964;2022-07-19T14:34:51;2.88;;;1.73;;
64483;SDS011;50862;51.642;7.964;2022-07-19T14:37:21;2.15;;;1.30;;
64483;SDS011;50862;51.642;7.964;2022-07-19T14:39:56;2.47;;;1.20;;
64483;SDS011;50862;51.642;7.964;2022-07-19T14:42:24;2.45;;;1.60;;
64483;SDS011;50862;51.642;7.964;2022-07-19T14:44:55;1.73;;;1.13;;
64483;SDS011;50862;51.642;7.964;2022-07-19T14:47:23;2.90;;;1.67;;
64483;SDS011;50862;51.642;7.964;2022-07-19T14:49:52;3.35;;;1.58;;
64483;SDS011;50862;51.642;7.964;2022-07-19T14:52:21;2.92;;;1.30;;
64483;SDS011;50862;51.642;7.964;2022-07-19T14:54:50;3.42;;;1.20;;
64483;SDS011;50862;51.642;7.964;2022-07-19T14:57:18;5.53;;;1.30;;
64483;SDS011;50862;51.642;7.964;2022-07-19T14:59:46;6.85;;;1.30;;
64483;SDS011;50862;51.642;7.964;2022-07-19T15:02:15;4.93;;;1.45;;
64483;SDS011;50862;51.642;7.964;2022-07-19T15:04:44;5.28;;;1.13;;
64483;SDS011;50862;51.642;7.964;2022-07-19T15:07:12;1.65;;;1.15;;
64483;SDS011;50862;51.642;7.964;2022-07-19T15:09:42;1.52;;;1.30;;
64483;SDS011;50862;51.642;7.964;2022-07-19T15:12:11;2.60;;;1.35;;
64483;SDS011;50862;51.642;7.964;2022-07-19T15:14:42;2.13;;;1.27;;
64483;SDS011;50862;51.642;7.964;2022-07-19T15:17:11;2.15;;;1.40;;